Time;durP1;ratioP1;P1;durP2;ratioP2;P2;SDS_P1;SDS_P2;PMS_P1;PMS_P2;Temp;Humidity;BMP_temperature;BMP_pressure;BME280_temperature;BME280_humidity;BME280_pressure;Samples;Min_cycle;Max_cycle;Signal;HPM_P1;HPM_P2
2021/06/03 00:00:49;;;;;;;3.20;2.90;;;20.20;99.90;;;;;;4975443;28;20606;-66
2021/06/03 00:03:16;;;;;;;3.30;2.63;;;20.20;99.90;;;;;;4975235;28;20640;-64
2021/06/03 00:05:44;;;;;;;3.50;3.03;;;20.20;99.90;;;;;;4975238;28;20622;-66
2021/06/03 00:08:11;;;;;;;3.23;2.93;;;20.20;99.90;;;;;;4975253;28;20650;-65
2021/06/03 00:10:43;;;;;;;4.17;3.77;;;20.10;99.90;;;;;;4975518;28;21119;-65
2021/06/03 00:13:10;;;;;;;3.23;2.97;;;20.00;99.90;;;;;;4975330;28;20563;-65
2021/06/03 00:15:37;;;;;;;3.90;3.23;;;20.10;99.90;;;;;;4975294;28;20630;-65
2021/06/03 00:18:05;;;;;;;3.70;3.20;;;20.00;99.90;;;;;;4975309;28;20607;-65
2021/06/03 00:20:33;;;;;;;3.67;3.20;;;20.00;99.90;;;;;;4975371;28;20601;-65
2021/06/03 00:22:59;;;;;;;3.30;3.10;;;19.90;99.90;;;;;;4974668;28;21016;-64
2021/06/03 00:25:26;;;;;;;3.50;3.30;;;19.80;99.90;;;;;;4974205;28;20621;-66
2021/06/03 00:27:53;;;;;;;4.70;3.60;;;19.80;99.90;;;;;;4975087;28;20650;-66
2021/06/03 00:30:20;;;;;;;3.30;3.10;;;19.80;99.90;;;;;;4975101;28;20595;-66
2021/06/03 00:32:47;;;;;;;3.87;3.43;;;19.90;99.90;;;;;;4975297;28;20619;-66
2021/06/03 00:35:13;;;;;;;5.30;3.33;;;19.80;99.90;;;;;;4975120;28;20694;-66
2021/06/03 00:37:40;;;;;;;5.40;4.20;;;19.70;99.90;;;;;;4975302;28;20685;-66
2021/06/03 00:40:08;;;;;;;4.17;3.87;;;19.70;99.90;;;;;;4973969;28;20701;-66
2021/06/03 00:42:35;;;;;;;9.53;3.80;;;19.60;99.90;;;;;;4973831;28;20610;-65
2021/06/03 00:45:03;;;;;;;5.97;4.63;;;19.60;99.90;;;;;;4974887;28;20696;-66
2021/06/03 00:47:29;;;;;;;4.53;3.70;;;19.60;99.90;;;;;;4974784;28;20600;-65
2021/06/03 00:49:56;;;;;;;5.30;3.90;;;19.50;99.90;;;;;;4975048;28;20615;-65
2021/06/03 00:52:22;;;;;;;5.93;3.77;;;19.40;99.90;;;;;;4974731;28;20605;-65
2021/06/03 00:54:49;;;;;;;4.30;3.97;;;19.30;99.90;;;;;;4974952;28;20626;-65
2021/06/03 00:57:16;;;;;;;4.07;3.70;;;19.30;99.90;;;;;;4957552;28;21188;-66
2021/06/03 00:59:42;;;;;;;4.37;3.97;;;19.30;99.90;;;;;;4975016;28;20626;-65
2021/06/03 01:02:09;;;;;;;6.70;4.07;;;19.30;99.90;;;;;;4974692;28;20617;-65
2021/06/03 01:04:36;;;;;;;4.03;3.73;;;19.30;99.90;;;;;;4973145;28;21019;-65
2021/06/03 01:07:03;;;;;;;4.30;3.10;;;19.30;99.90;;;;;;4974557;28;20595;-65
2021/06/03 01:09:37;;;;;;;3.97;3.63;;;19.30;99.90;;;;;;4974619;28;20654;-65
2021/06/03 01:12:16;;;;;;;7.50;3.70;;;19.20;99.90;;;;;;4974924;28;20584;-65
2021/06/03 01:14:51;;;;;;;4.60;4.10;;;19.20;99.90;;;;;;4974806;28;20583;-66
2021/06/03 01:17:20;;;;;;;4.07;3.57;;;19.20;99.90;;;;;;4974627;28;20645;-66
2021/06/03 01:19:49;;;;;;;4.30;3.90;;;19.20;99.90;;;;;;4974514;28;20631;-66
2021/06/03 01:22:22;;;;;;;3.70;3.50;;;19.20;99.90;;;;;;4973293;28;20679;-65
2021/06/03 01:24:57;;;;;;;4.77;3.90;;;19.00;99.90;;;;;;4974568;28;21187;-65
2021/06/03 01:27:28;;;;;;;4.03;3.70;;;18.90;99.90;;;;;;4974501;28;20618;-65
2021/06/03 01:30:26;;;;;;;4.10;3.70;;;18.90;99.90;;;;;;4974288;28;20973;-66
2021/06/03 01:32:58;;;;;;;4.90;3.60;;;19.00;99.90;;;;;;4974672;28;20622;-66
2021/06/03 01:35:30;;;;;;;4.30;3.97;;;19.00;99.90;;;;;;4974226;28;20572;-65
2021/06/03 01:37:57;;;;;;;4.40;4.10;;;19.00;99.90;;;;;;4974441;28;20630;-65
2021/06/03 01:40:27;;;;;;;3.80;3.60;;;19.00;99.90;;;;;;4974109;28;20647;-65
2021/06/03 01:42:53;;;;;;;3.90;3.60;;;19.00;99.90;;;;;;4974091;28;20605;-65
2021/06/03 01:45:21;;;;;;;4.37;4.07;;;19.00;99.90;;;;;;4974292;28;20577;-65
2021/06/03 01:47:49;;;;;;;3.80;3.60;;;19.00;99.90;;;;;;4972743;28;20658;-65
2021/06/03 01:50:17;;;;;;;4.00;3.70;;;19.00;99.90;;;;;;4974179;28;20603;-65
2021/06/03 01:52:44;;;;;;;4.37;4.03;;;18.90;99.90;;;;;;4974105;28;20963;-65
2021/06/03 01:55:12;;;;;;;5.10;4.27;;;18.80;99.90;;;;;;4974204;28;20606;-65
2021/06/03 01:57:40;;;;;;;8.10;4.47;;;18.80;99.90;;;;;;4974114;28;20599;-65
2021/06/03 02:00:10;;;;;;;4.03;3.77;;;18.80;99.90;;;;;;4974169;28;20627;-65
2021/06/03 02:02:37;;;;;;;4.23;3.93;;;18.90;99.90;;;;;;4978028;28;21134;-65
2021/06/03 02:05:05;;;;;;;5.50;4.97;;;18.90;99.90;;;;;;4977663;28;20628;-65
2021/06/03 02:07:32;;;;;;;4.43;3.87;;;18.80;99.90;;;;;;4976268;28;20606;-65
2021/06/03 02:09:59;;;;;;;4.37;4.07;;;18.80;99.90;;;;;;4977586;28;20653;-65
2021/06/03 02:12:27;;;;;;;4.97;4.57;;;18.70;99.90;;;;;;4977367;28;21129;-65
2021/06/03 02:14:56;;;;;;;5.47;4.40;;;18.70;99.90;;;;;;4960180;28;20632;-65
2021/06/03 02:17:29;;;;;;;4.47;4.17;;;18.70;99.90;;;;;;4977683;28;21196;-65
2021/06/03 02:19:59;;;;;;;4.93;4.53;;;18.60;99.90;;;;;;4977497;28;20570;-65
2021/06/03 02:22:26;;;;;;;4.77;4.30;;;18.60;99.90;;;;;;4977414;28;20595;-65
2021/06/03 02:24:53;;;;;;;4.63;4.23;;;18.60;99.90;;;;;;4977070;28;20599;-65
2021/06/03 02:27:21;;;;;;;4.87;4.47;;;18.50;99.90;;;;;;4977148;28;21188;-66
2021/06/03 02:29:48;;;;;;;8.83;5.30;;;18.50;99.90;;;;;;4976940;28;20654;-65
2021/06/03 02:32:16;;;;;;;5.07;4.50;;;18.40;99.90;;;;;;4977009;28;20622;-65
2021/06/03 02:34:44;;;;;;;4.93;4.53;;;18.30;99.90;;;;;;4975877;28;20630;-65
2021/06/03 02:37:13;;;;;;;6.43;4.57;;;18.30;99.90;;;;;;4975995;28;20967;-65
2021/06/03 02:39:45;;;;;;;4.97;4.60;;;18.30;99.90;;;;;;4977278;28;20960;-65
2021/06/03 02:42:12;;;;;;;5.20;4.70;;;18.20;99.90;;;;;;4976952;28;20614;-65
2021/06/03 02:44:39;;;;;;;4.67;4.37;;;18.10;99.90;;;;;;4976869;28;21211;-65
2021/06/03 02:47:07;;;;;;;6.60;4.20;;;18.10;99.90;;;;;;4976881;28;20598;-65
2021/06/03 02:49:35;;;;;;;6.10;4.90;;;18.00;99.90;;;;;;4975548;28;20952;-66
2021/06/03 02:52:06;;;;;;;5.20;4.70;;;17.90;99.90;;;;;;4977119;28;20629;-66
2021/06/03 02:54:33;;;;;;;4.63;4.30;;;17.70;99.90;;;;;;4977040;28;20678;-66
2021/06/03 02:57:00;;;;;;;6.23;5.50;;;17.70;99.90;;;;;;4976560;28;20615;-66
2021/06/03 02:59:27;;;;;;;5.63;5.13;;;17.60;99.90;;;;;;4976585;28;20603;-67
2021/06/03 03:01:53;;;;;;;5.33;4.83;;;17.60;99.90;;;;;;4977960;28;20700;-66
2021/06/03 03:04:20;;;;;;;5.40;4.90;;;17.70;99.90;;;;;;4995496;28;20622;-66
2021/06/03 03:06:46;;;;;;;4.47;4.17;;;17.80;99.90;;;;;;4995376;28;21248;-66
2021/06/03 03:09:13;;;;;;;5.50;5.00;;;17.80;99.90;;;;;;4995338;28;21038;-66
2021/06/03 03:11:39;;;;;;;5.60;5.20;;;17.90;99.90;;;;;;4995359;28;20728;-66
2021/06/03 03:14:05;;;;;;;5.20;4.80;;;17.90;99.90;;;;;;4995113;28;20648;-65
2021/06/03 03:16:32;;;;;;;4.77;4.47;;;17.90;99.90;;;;;;4995732;28;20602;-66
2021/06/03 03:18:58;;;;;;;5.23;4.70;;;17.80;99.90;;;;;;4995761;28;20613;-66
2021/06/03 03:21:24;;;;;;;6.37;5.20;;;17.80;99.90;;;;;;4995794;28;20602;-66
2021/06/03 03:23:51;;;;;;;4.73;4.33;;;17.80;99.90;;;;;;4995693;28;20598;-66
2021/06/03 03:26:17;;;;;;;5.17;4.77;;;17.70;99.90;;;;;;4995547;28;20610;-66
2021/06/03 03:28:44;;;;;;;4.83;4.53;;;17.70;99.90;;;;;;4995298;28;20660;-65
2021/06/03 03:31:10;;;;;;;5.90;5.10;;;17.70;99.90;;;;;;4995816;28;20608;-66
2021/06/03 03:33:37;;;;;;;4.87;4.50;;;17.80;99.90;;;;;;4995662;28;20613;-66
2021/06/03 03:36:05;;;;;;;5.50;4.97;;;17.90;99.90;;;;;;4994564;28;20612;-66
2021/06/03 03:38:32;;;;;;;5.53;4.60;;;17.90;99.90;;;;;;4995205;28;20583;-66
2021/06/03 03:40:58;;;;;;;5.37;4.93;;;18.00;99.90;;;;;;4994983;28;20666;-66
2021/06/03 03:43:25;;;;;;;7.60;4.80;;;18.00;99.90;;;;;;4995332;28;20655;-66
2021/06/03 03:45:51;;;;;;;4.90;4.50;;;17.90;99.90;;;;;;4995243;28;20614;-66
2021/06/03 03:48:18;;;;;;;5.07;4.57;;;17.90;99.90;;;;;;4994974;28;21206;-66
2021/06/03 03:50:45;;;;;;;5.20;4.87;;;17.80;99.90;;;;;;4994995;28;20580;-66
2021/06/03 03:53:11;;;;;;;5.33;4.93;;;17.80;99.90;;;;;;4995231;28;20606;-66
2021/06/03 03:55:37;;;;;;;5.30;4.80;;;17.80;99.90;;;;;;4995044;28;20608;-66
2021/06/03 03:58:04;;;;;;;7.43;5.50;;;17.70;99.90;;;;;;4995182;28;20613;-66
2021/06/03 04:00:34;;;;;;;5.60;4.63;;;17.70;99.90;;;;;;4995189;28;20598;-66
2021/06/03 04:03:02;;;;;;;5.10;4.80;;;17.80;99.90;;;;;;4994552;28;20626;-66
2021/06/03 04:05:29;;;;;;;5.50;5.10;;;17.80;99.90;;;;;;4994878;28;20652;-66
2021/06/03 04:07:55;;;;;;;5.80;5.30;;;17.80;99.90;;;;;;4993673;28;20608;-66
2021/06/03 04:10:22;;;;;;;8.00;5.53;;;17.70;99.90;;;;;;4994829;28;20634;-66
2021/06/03 04:12:50;;;;;;;5.80;5.30;;;17.70;99.90;;;;;;4994952;28;20608;-66
2021/06/03 04:15:18;;;;;;;5.90;5.40;;;17.70;99.90;;;;;;4994524;28;20963;-66
2021/06/03 04:17:45;;;;;;;5.40;5.00;;;17.70;99.90;;;;;;4994313;28;20610;-66
2021/06/03 04:20:15;;;;;;;5.60;5.20;;;17.70;99.90;;;;;;4994578;28;20621;-66
2021/06/03 04:22:42;;;;;;;5.97;5.47;;;17.60;99.90;;;;;;4994659;28;20621;-66
2021/06/03 04:25:09;;;;;;;6.10;5.60;;;17.60;99.90;;;;;;4994030;28;20598;-66
2021/06/03 04:27:35;;;;;;;5.87;5.47;;;17.50;99.90;;;;;;4994194;28;20597;-66
2021/06/03 04:30:04;;;;;;;5.67;5.27;;;17.40;99.90;;;;;;4994138;28;20651;-66
2021/06/03 04:32:30;;;;;;;7.30;6.60;;;17.40;99.90;;;;;;4994426;28;20617;-65
2021/06/03 04:34:58;;;;;;;8.10;6.00;;;17.40;99.90;;;;;;4994580;28;20598;-66
2021/06/03 04:37:26;;;;;;;5.67;5.27;;;17.30;99.90;;;;;;4994557;28;20594;-66
2021/06/03 04:39:52;;;;;;;10.30;6.20;;;17.30;99.90;;;;;;4994187;28;20644;-65
2021/06/03 04:42:19;;;;;;;7.13;6.27;;;17.40;99.90;;;;;;4994623;28;20623;-66
2021/06/03 04:44:46;;;;;;;6.17;5.60;;;17.50;99.90;;;;;;4994234;28;20697;-66
2021/06/03 04:47:12;;;;;;;5.87;5.43;;;17.60;99.90;;;;;;4994292;28;20622;-66
2021/06/03 04:49:39;;;;;;;6.07;5.50;;;17.70;99.90;;;;;;4993257;28;20657;-66
2021/06/03 04:54:51;;;;;;;5.70;5.30;;;18.00;99.90;;;;;;4993453;28;20596;-66
2021/06/03 04:57:18;;;;;;;7.40;5.63;;;18.20;99.90;;;;;;4993119;28;20601;-66
2021/06/03 04:59:45;;;;;;;6.03;5.53;;;18.20;99.90;;;;;;4994029;28;20640;-66
2021/06/03 05:02:11;;;;;;;5.57;5.17;;;18.30;99.90;;;;;;4993944;28;20610;-66
2021/06/03 05:04:37;;;;;;;7.63;5.93;;;18.40;99.90;;;;;;4994101;28;20614;-66
2021/06/03 05:07:04;;;;;;;7.77;5.57;;;18.60;99.90;;;;;;4994053;28;20601;-66
2021/06/03 05:09:30;;;;;;;5.70;5.20;;;18.80;99.90;;;;;;4994331;28;20650;-66
2021/06/03 05:11:57;;;;;;;4.70;4.30;;;19.00;99.90;;;;;;4994366;28;20586;-66
2021/06/03 05:14:24;;;;;;;4.80;4.40;;;19.10;99.90;;;;;;4992910;28;20620;-65
2021/06/03 05:16:50;;;;;;;5.90;5.40;;;19.30;99.90;;;;;;4994264;28;20610;-66
2021/06/03 05:19:16;;;;;;;4.57;4.27;;;19.30;99.90;;;;;;4993973;28;20624;-66
2021/06/03 05:21:43;;;;;;;9.13;4.60;;;19.40;99.90;;;;;;4994122;28;20593;-66
2021/06/03 05:24:09;;;;;;;5.57;4.57;;;19.40;99.90;;;;;;4993895;28;20616;-68
2021/06/03 05:26:35;;;;;;;4.83;4.33;;;19.40;99.90;;;;;;4994047;28;20963;-66
2021/06/03 05:29:02;;;;;;;5.30;4.80;;;19.40;99.90;;;;;;4993915;28;20637;-66
2021/06/03 05:31:28;;;;;;;5.27;4.87;;;19.30;99.90;;;;;;4993948;28;20687;-66
2021/06/03 05:33:55;;;;;;;7.00;5.10;;;19.30;99.90;;;;;;4993844;28;20594;-66
2021/06/03 05:36:21;;;;;;;5.23;4.67;;;19.30;99.90;;;;;;4995849;28;20600;-66
2021/06/03 05:38:47;;;;;;;5.97;5.37;;;19.30;99.90;;;;;;4996356;28;20615;-66
2021/06/03 05:41:14;;;;;;;4.93;4.53;;;19.40;99.90;;;;;;4997467;28;20630;-65
2021/06/03 05:43:42;;;;;;;5.87;5.37;;;19.40;99.90;;;;;;4997418;28;20645;-66
2021/06/03 05:46:08;;;;;;;5.37;4.97;;;19.50;99.90;;;;;;4997275;28;20629;-66
2021/06/03 05:48:35;;;;;;;5.80;5.10;;;19.60;99.90;;;;;;4997026;28;20634;-66
2021/06/03 05:51:01;;;;;;;6.13;4.93;;;19.90;99.90;;;;;;4997466;28;20616;-66
2021/06/03 05:53:27;;;;;;;5.00;4.60;;;20.30;99.90;;;;;;4997334;28;20593;-66
2021/06/03 05:55:54;;;;;;;4.90;4.50;;;20.70;99.90;;;;;;4997359;28;20969;-66
2021/06/03 05:58:20;;;;;;;4.87;4.57;;;20.90;99.90;;;;;;4997246;28;20717;-66
2021/06/03 06:00:46;;;;;;;6.20;5.10;;;20.80;99.90;;;;;;4997516;28;20958;-66
2021/06/03 06:03:22;;;;;;;7.40;5.17;;;20.70;99.90;;;;;;4995596;28;20653;-66
2021/06/03 06:06:10;;;;;;;7.07;5.70;;;20.80;99.90;;;;;;4997299;28;20565;-66
2021/06/03 06:08:37;;;;;;;5.27;4.87;;;21.00;99.90;;;;;;4997006;28;20614;-64
2021/06/03 06:11:04;;;;;;;8.33;6.10;;;20.90;99.90;;;;;;4996852;28;20613;-64
2021/06/03 06:13:30;;;;;;;6.07;5.50;;;20.80;99.90;;;;;;4997047;28;20987;-65
2021/06/03 06:15:57;;;;;;;5.87;5.37;;;21.00;99.90;;;;;;4997332;28;20671;-66
2021/06/03 06:18:23;;;;;;;7.67;5.13;;;21.30;99.90;;;;;;4997193;28;20612;-65
2021/06/03 06:20:49;;;;;;;8.53;6.87;;;21.40;99.90;;;;;;4980181;28;20659;-65
2021/06/03 06:23:16;;;;;;;7.83;5.43;;;21.20;99.90;;;;;;4997443;28;21158;-65
2021/06/03 06:25:43;;;;;;;6.00;5.50;;;21.40;99.90;;;;;;4996846;28;21181;-66
2021/06/03 06:28:11;;;;;;;7.50;5.10;;;21.40;99.90;;;;;;4995982;28;20621;-66
2021/06/03 06:30:38;;;;;;;4.77;4.37;;;21.40;99.90;;;;;;4994925;28;20704;-66
2021/06/03 06:33:04;;;;;;;5.07;4.77;;;21.40;99.90;;;;;;4997050;28;20589;-66
2021/06/03 06:35:34;;;;;;;5.20;4.73;;;21.60;99.90;;;;;;4980030;28;20660;-66
2021/06/03 06:38:03;;;;;;;5.07;4.67;;;21.50;99.90;;;;;;4996635;28;20625;-66
2021/06/03 06:40:31;;;;;;;5.37;4.90;;;21.50;99.90;;;;;;4996890;28;20637;-66
2021/06/03 06:42:57;;;;;;;4.93;4.47;;;21.50;99.90;;;;;;4996521;28;20590;-66
2021/06/03 06:45:29;;;;;;;5.47;4.97;;;21.50;99.90;;;;;;4996699;28;20618;-66
2021/06/03 06:47:56;;;;;;;5.70;5.30;;;21.60;99.90;;;;;;4996737;28;21119;-66
2021/06/03 06:50:23;;;;;;;5.10;4.80;;;21.50;99.90;;;;;;4995247;28;20668;-66
2021/06/03 06:52:50;;;;;;;7.90;5.17;;;21.40;99.90;;;;;;4996336;28;20610;-66
2021/06/03 06:55:17;;;;;;;5.97;4.70;;;21.60;99.90;;;;;;4996762;28;20964;-66
2021/06/03 06:57:43;;;;;;;5.90;5.30;;;21.90;99.90;;;;;;4996636;28;20608;-66
2021/06/03 07:00:11;;;;;;;4.60;4.20;;;22.10;99.90;;;;;;4996446;28;20622;-66
2021/06/03 07:02:38;;;;;;;6.17;4.63;;;22.70;99.90;;;;;;4996319;28;21170;-65
2021/06/03 07:05:07;;;;;;;4.93;4.43;;;22.60;99.90;;;;;;4995585;28;20622;-67
2021/06/03 07:07:34;;;;;;;4.93;4.63;;;23.00;99.90;;;;;;4996112;28;20610;-66
2021/06/03 07:10:01;;;;;;;4.47;4.13;;;23.10;99.90;;;;;;4996061;28;20638;-66
2021/06/03 07:12:27;;;;;;;4.03;3.47;;;23.10;99.90;;;;;;4994843;28;20713;-66
2021/06/03 07:14:53;;;;;;;6.43;3.40;;;23.30;99.90;;;;;;4994753;28;20592;-65
2021/06/03 07:17:20;;;;;;;3.57;3.33;;;23.40;99.90;;;;;;4995937;28;21162;-65
2021/06/03 07:19:46;;;;;;;5.17;3.60;;;23.20;99.90;;;;;;4995861;28;20613;-66
2021/06/03 07:22:13;;;;;;;3.40;3.20;;;23.10;99.90;;;;;;4995062;28;20601;-66
2021/06/03 07:24:40;;;;;;;3.57;3.30;;;23.60;99.90;;;;;;4996066;28;20623;-66
2021/06/03 07:27:08;;;;;;;3.93;3.63;;;23.40;99.90;;;;;;4978646;28;20982;-66
2021/06/03 07:29:34;;;;;;;3.47;3.00;;;23.20;99.90;;;;;;4995746;28;21207;-66
2021/06/03 07:32:00;;;;;;;4.07;3.87;;;22.90;99.90;;;;;;4994503;28;20621;-66
2021/06/03 07:34:28;;;;;;;3.97;3.67;;;22.80;99.90;;;;;;4996002;28;20602;-65
2021/06/03 07:36:55;;;;;;;9.97;4.10;;;23.00;99.90;;;;;;4995621;28;21136;-65
2021/06/03 07:39:22;;;;;;;6.57;3.40;;;22.90;99.90;;;;;;4994288;28;20626;-65
2021/06/03 07:41:49;;;;;;;4.90;4.30;;;22.90;99.90;;;;;;4994188;28;20666;-66
2021/06/03 07:44:16;;;;;;;3.90;3.60;;;23.00;99.90;;;;;;4995427;28;20680;-66
2021/06/03 07:46:42;;;;;;;3.57;3.27;;;23.20;99.90;;;;;;4994023;28;20614;-66
2021/06/03 07:49:13;;;;;;;4.20;3.27;;;22.90;99.90;;;;;;4977676;28;20668;-65
2021/06/03 07:51:41;;;;;;;3.80;3.50;;;23.00;99.90;;;;;;4995624;28;20621;-66
2021/06/03 07:54:08;;;;;;;4.83;4.30;;;23.10;99.90;;;;;;4994999;28;21060;-65
2021/06/03 07:56:35;;;;;;;5.90;3.80;;;23.00;99.90;;;;;;4995244;28;20622;-66
2021/06/03 07:59:02;;;;;;;4.80;4.40;;;22.90;99.90;;;;;;4993197;28;20630;-66
2021/06/03 08:01:29;;;;;;;4.10;3.60;;;22.90;99.90;;;;;;4995366;28;20685;-66
2021/06/03 08:03:55;;;;;;;4.40;3.83;;;23.10;99.90;;;;;;4994210;28;20602;-66
2021/06/03 08:06:22;;;;;;;5.43;3.80;;;23.10;99.90;;;;;;4995376;28;20597;-66
2021/06/03 08:08:48;;;;;;;4.10;3.80;;;23.10;99.90;;;;;;4995044;28;20628;-65
2021/06/03 08:11:15;;;;;;;3.73;3.43;;;23.30;99.90;;;;;;4994444;28;21145;-65
2021/06/03 08:13:41;;;;;;;7.23;4.07;;;23.30;99.90;;;;;;4994991;28;20614;-66
2021/06/03 08:16:07;;;;;;;3.63;3.00;;;23.40;99.90;;;;;;4995943;28;20869;-66
2021/06/03 08:18:34;;;;;;;3.70;3.40;;;23.60;99.90;;;;;;4994805;28;20618;-66
2021/06/03 08:21:04;;;;;;;3.70;3.50;;;24.00;99.90;;;;;;4995275;28;20693;-66
2021/06/03 08:23:30;;;;;;;3.80;3.13;;;24.30;99.90;;;;;;4994971;28;20597;-66
2021/06/03 08:25:57;;;;;;;3.03;2.80;;;24.40;99.90;;;;;;4992917;28;20621;-66
2021/06/03 08:28:25;;;;;;;3.43;3.20;;;24.40;99.90;;;;;;4992941;28;20625;-66
2021/06/03 08:30:52;;;;;;;3.70;3.00;;;24.70;99.90;;;;;;4994854;28;21234;-66
2021/06/03 08:33:19;;;;;;;3.23;3.03;;;24.70;99.90;;;;;;4976737;28;20704;-66
2021/06/03 08:35:46;;;;;;;5.67;3.10;;;24.30;99.90;;;;;;4994138;28;21192;-65
2021/06/03 08:38:13;;;;;;;3.17;2.97;;;24.10;99.90;;;;;;4994769;28;20601;-65
2021/06/03 08:40:53;;;;;;;3.57;3.27;;;24.10;99.90;;;;;;4992850;28;20652;-65
2021/06/03 08:43:23;;;;;;;3.87;3.60;;;24.20;99.90;;;;;;4993873;28;21004;-66
2021/06/03 08:45:49;;;;;;;3.60;3.30;;;24.10;99.90;;;;;;4994499;28;20927;-66
2021/06/03 08:48:16;;;;;;;3.23;3.13;;;24.30;99.90;;;;;;4994204;28;20680;-66
2021/06/03 08:50:52;;;;;;;4.13;3.63;;;24.70;99.90;;;;;;4994388;28;21188;-66
2021/06/03 08:53:19;;;;;;;5.53;3.50;;;24.70;99.90;;;;;;4994324;28;20577;-64
2021/06/03 08:58:32;;;;;;;3.60;3.40;;;24.30;99.90;;;;;;4994540;28;20665;-66
2021/06/03 09:00:59;;;;;;;3.47;3.17;;;24.40;99.90;;;;;;4994268;28;20601;-65
2021/06/03 09:03:28;;;;;;;3.93;3.57;;;24.50;99.90;;;;;;4992923;28;20610;-65
2021/06/03 09:05:55;;;;;;;6.83;3.13;;;24.50;99.90;;;;;;4994458;28;20608;-65
2021/06/03 09:08:31;;;;;;;4.67;4.27;;;24.60;99.90;;;;;;4994142;28;20593;-65
2021/06/03 09:11:00;;;;;;;3.00;2.80;;;24.50;99.90;;;;;;4996987;28;21218;-65
2021/06/03 09:13:35;;;;;;;3.50;3.20;;;24.50;99.90;;;;;;4998508;28;20609;-65
2021/06/03 09:16:13;;;;;;;2.93;2.73;;;24.70;99.90;;;;;;4996795;28;20984;-65
2021/06/03 09:18:45;;;;;;;4.70;3.50;;;25.20;99.90;;;;;;4998185;28;20601;-65
2021/06/03 09:21:24;;;;;;;8.03;3.50;;;25.30;99.90;;;;;;4996598;28;20687;-65
2021/06/03 09:24:12;;;;;;;2.90;2.70;;;25.00;99.90;;;;;;4996344;28;21100;-65
2021/06/03 09:26:53;;;;;;;4.33;3.10;;;25.40;99.90;;;;;;4997935;28;20562;-65
2021/06/03 09:29:38;;;;;;;2.47;2.37;;;25.20;99.90;;;;;;4997904;28;20625;-65
2021/06/03 09:32:05;;;;;;;3.17;2.97;;;25.10;99.90;;;;;;4998139;28;20570;-66
2021/06/03 09:34:32;;;;;;;2.97;2.77;;;25.40;99.90;;;;;;4996457;28;20632;-65
2021/06/03 09:37:01;;;;;;;3.60;3.33;;;25.30;99.90;;;;;;4998016;28;20621;-65
2021/06/03 09:39:35;;;;;;;3.43;3.23;;;25.30;99.90;;;;;;4998169;28;20617;-65
2021/06/03 09:42:02;;;;;;;3.87;3.57;;;25.20;99.90;;;;;;4997820;28;20625;-66
2021/06/03 09:44:39;;;;;;;5.50;3.70;;;25.90;99.90;;;;;;4997320;28;20637;-65
2021/06/03 09:47:15;;;;;;;3.17;2.87;;;25.90;99.90;;;;;;4997693;28;20940;-65
2021/06/03 09:49:56;;;;;;;4.40;3.80;;;25.90;99.90;;;;;;4997561;28;21144;-65
2021/06/03 09:52:28;;;;;;;3.83;3.53;;;25.90;99.90;;;;;;4997321;28;20573;-66
2021/06/03 09:54:58;;;;;;;3.80;3.60;;;25.50;99.90;;;;;;4997480;28;20573;-65
2021/06/03 09:57:33;;;;;;;4.20;3.90;;;25.50;99.90;;;;;;4997302;28;20648;-65
2021/06/03 10:00:04;;;;;;;4.43;4.00;;;25.90;99.90;;;;;;4997008;28;20636;-66
2021/06/03 10:02:32;;;;;;;4.10;3.80;;;25.90;99.90;;;;;;4997030;28;20626;-65
2021/06/03 10:04:58;;;;;;;3.93;3.60;;;25.90;99.90;;;;;;4996873;28;20629;-65
2021/06/03 10:07:27;;;;;;;3.50;3.20;;;26.10;99.90;;;;;;4997739;28;21183;-66
2021/06/03 10:10:03;;;;;;;4.23;4.03;;;26.30;99.90;;;;;;4997151;28;20688;-66
2021/06/03 10:12:32;;;;;;;4.50;4.10;;;26.40;99.90;;;;;;4996434;28;20624;-64
2021/06/03 10:15:03;;;;;;;4.80;4.20;;;26.00;99.90;;;;;;4994999;28;20995;-65
2021/06/03 10:17:35;;;;;;;3.97;3.63;;;26.00;99.90;;;;;;4996607;28;21167;-65
2021/06/03 10:20:05;;;;;;;4.20;3.80;;;26.10;99.90;;;;;;4996447;28;20606;-65
2021/06/03 10:22:43;;;;;;;3.90;3.63;;;26.10;99.90;;;;;;4995571;28;20722;-65
2021/06/03 10:25:14;;;;;;;5.00;3.50;;;26.20;99.90;;;;;;4996312;28;20630;-65
2021/06/03 10:27:42;;;;;;;4.47;3.67;;;26.00;99.90;;;;;;4996079;28;20629;-66
2021/06/03 10:30:14;;;;;;;3.97;3.60;;;25.80;99.90;;;;;;4996175;28;20657;-66
2021/06/03 10:32:42;;;;;;;5.67;5.13;;;25.50;99.90;;;;;;4995784;28;20672;-66
2021/06/03 10:35:14;;;;;;;4.73;4.13;;;25.90;99.90;;;;;;4996371;28;20605;-66
2021/06/03 10:37:42;;;;;;;4.13;3.83;;;26.10;99.90;;;;;;4994868;28;20625;-66
2021/06/03 10:40:13;;;;;;;4.07;3.77;;;26.00;99.90;;;;;;4995902;28;20633;-66
2021/06/03 10:42:41;;;;;;;4.30;4.00;;;25.80;99.90;;;;;;4994688;28;21156;-66
2021/06/03 10:45:10;;;;;;;3.43;3.23;;;26.20;99.90;;;;;;4995782;28;20657;-65
2021/06/03 10:47:38;;;;;;;3.50;3.30;;;26.30;99.90;;;;;;4996160;28;20612;-65
2021/06/03 10:50:07;;;;;;;3.23;3.13;;;26.80;99.90;;;;;;4995988;28;20648;-66
2021/06/03 10:52:35;;;;;;;4.40;3.57;;;26.60;99.90;;;;;;4996232;28;20614;-66
2021/06/03 10:55:06;;;;;;;4.27;3.97;;;26.70;99.90;;;;;;4995952;28;20634;-66
2021/06/03 10:57:58;;;;;;;3.73;3.43;;;26.40;99.90;;;;;;4995943;28;20617;-66
2021/06/03 11:00:28;;;;;;;3.83;3.53;;;26.90;99.90;;;;;;4994472;28;20618;-66
2021/06/03 11:03:05;;;;;;;4.33;3.83;;;26.70;99.90;;;;;;4994659;28;20640;-64
2021/06/03 11:05:42;;;;;;;5.27;3.63;;;26.50;99.90;;;;;;4995544;28;21162;-65
2021/06/03 11:08:25;;;;;;;3.60;3.37;;;26.60;99.90;;;;;;4996031;28;20561;-66
2021/06/03 11:10:52;;;;;;;6.80;3.27;;;27.10;99.90;;;;;;4995637;28;20661;-66
2021/06/03 11:13:20;;;;;;;2.70;2.50;;;27.20;99.90;;;;;;4994782;28;20618;-66
2021/06/03 11:16:02;;;;;;;3.50;3.20;;;27.10;99.90;;;;;;4995620;28;21144;-66
2021/06/03 11:18:47;;;;;;;3.20;3.00;;;27.30;99.90;;;;;;4995641;28;20948;-65
2021/06/03 11:21:35;;;;;;;3.37;3.07;;;27.50;99.90;;;;;;4995523;28;20609;-65
2021/06/03 11:24:32;;;;;;;3.30;2.83;;;27.70;99.90;;;;;;4995649;28;20605;-66
2021/06/03 11:27:00;;;;;;;3.40;2.83;;;28.40;99.90;;;;;;4995008;28;20958;-66
2021/06/03 11:29:59;;;;;;;9.37;3.00;;;28.70;99.90;;;;;;4994433;28;20625;-66
2021/06/03 11:32:32;;;;;;;3.13;2.93;;;28.70;99.90;;;;;;4991682;28;20637;-66
2021/06/03 11:35:01;;;;;;;3.27;3.03;;;28.80;99.90;;;;;;4994781;28;20634;-66
2021/06/03 11:37:36;;;;;;;5.53;3.13;;;29.30;99.90;;;;;;4995508;28;20647;-64
2021/06/03 11:40:07;;;;;;;4.03;3.40;;;29.50;99.90;;;;;;4995716;28;20621;-65
2021/06/03 11:42:48;;;;;;;3.70;3.50;;;29.20;99.90;;;;;;4994839;28;20621;-65
2021/06/03 11:45:21;;;;;;;4.03;3.73;;;29.30;99.90;;;;;;4996093;28;20998;-65
2021/06/03 11:47:47;;;;;;;6.53;3.20;;;27.80;99.90;;;;;;4995088;28;20614;-65
2021/06/03 11:50:14;;;;;;;4.93;3.20;;;29.10;99.90;;;;;;4995021;28;21200;-65
2021/06/03 11:52:56;;;;;;;4.40;3.27;;;29.20;99.90;;;;;;4994933;28;20602;-65
2021/06/03 11:55:48;;;;;;;4.83;3.80;;;28.60;99.90;;;;;;4994844;28;20625;-65
2021/06/03 11:58:26;;;;;;;3.97;3.13;;;28.80;99.90;;;;;;4994808;28;20632;-65
2021/06/03 12:01:00;;;;;;;4.77;3.63;;;29.10;99.90;;;;;;4995226;28;20574;-66
2021/06/03 12:03:30;;;;;;;4.20;3.13;;;28.80;99.90;;;;;;4995107;28;20617;-66
2021/06/03 12:06:13;;;;;;;4.27;3.87;;;29.60;99.90;;;;;;4994743;28;20629;-66
2021/06/03 12:08:44;;;;;;;4.80;3.97;;;29.80;99.90;;;;;;4994314;28;20709;-66
2021/06/03 12:11:19;;;;;;;3.50;3.30;;;28.90;99.90;;;;;;4994683;28;20613;-66
2021/06/03 12:13:47;;;;;;;4.23;3.33;;;28.80;99.90;;;;;;4994742;28;21052;-66
2021/06/03 12:16:14;;;;;;;7.03;3.93;;;29.30;99.90;;;;;;4995038;28;20617;-66
2021/06/03 12:18:42;;;;;;;4.13;2.67;;;29.20;99.90;;;;;;4994863;28;20606;-66
2021/06/03 12:21:13;;;;;;;3.93;3.10;;;30.20;99.90;;;;;;4993384;28;20626;-66
2021/06/03 12:23:48;;;;;;;5.13;3.30;;;30.20;99.90;;;;;;4994633;28;20578;-66
2021/06/03 12:26:17;;;;;;;5.70;3.53;;;30.60;99.90;;;;;;4994473;28;20609;-66
2021/06/03 12:28:44;;;;;;;3.70;3.33;;;30.80;99.90;;;;;;4994398;28;20594;-66
2021/06/03 12:31:17;;;;;;;3.73;3.37;;;29.60;99.90;;;;;;4994128;28;20653;-66
2021/06/03 12:33:44;;;;;;;3.20;2.90;;;28.80;99.90;;;;;;4994250;28;21011;-66
2021/06/03 12:36:10;;;;;;;3.80;3.50;;;28.80;99.90;;;;;;4994536;28;20621;-66
2021/06/03 12:38:51;;;;;;;5.93;2.63;;;28.60;99.90;;;;;;4993844;28;20614;-66
2021/06/03 12:41:36;;;;;;;3.20;3.00;;;29.20;99.90;;;;;;4993984;28;20652;-66
2021/06/03 12:44:18;;;;;;;4.33;3.10;;;28.90;99.90;;;;;;4993491;28;20653;-66
2021/06/03 12:46:53;;;;;;;5.17;2.90;;;29.40;99.90;;;;;;4994188;28;20569;-66
2021/06/03 12:49:27;;;;;;;4.40;3.07;;;29.70;99.90;;;;;;4994310;28;20561;-66
2021/06/03 12:52:08;;;;;;;4.10;3.40;;;30.40;99.90;;;;;;4993968;28;20605;-66
2021/06/03 12:54:39;;;;;;;7.47;2.83;;;30.20;99.90;;;;;;4994112;28;20610;-66
2021/06/03 12:57:15;;;;;;;3.27;3.07;;;30.40;99.90;;;;;;4993857;28;20628;-66
2021/06/03 12:59:44;;;;;;;3.60;3.30;;;30.70;99.90;;;;;;4993937;28;20621;-66
2021/06/03 13:02:14;;;;;;;4.30;2.87;;;31.10;99.90;;;;;;4993811;28;20649;-66
2021/06/03 13:04:51;;;;;;;3.47;3.17;;;31.20;99.90;;;;;;4993917;28;20606;-66